Flight Track Log - Related Links

Times and Time Zones

All times are in EDT time to prevent confusion due to time zone crossing. See the RPA3468 flight status page for this flight to view local times or setup timezone preferences in your user account.

Time Position Orientation Groundspeed Altitude Reporting Facility
EDT Latitude Longitude Course Direction KTS MPH feet Rate Location/Type
Fri 08:09:11 PM 38.8000 -77.0333 83° East 159 183 2,100  Level Potomac TRACON
Fri 08:10:05 PM 38.7500 -77.0333 180° South 229 264 3,400 1,947 Climbing Potomac TRACON
Fri 08:11:00 PM 39.0204 -76.5556 67° East  Level FlightAware Approximate
Fri 08:11:05 PM 38.7333 -76.9500 104° East 298 343 5,800  Level Potomac TRACON
Fri 08:12:00 PM 39.0662 -76.4346 63° Northeast  Level FlightAware Approximate
Fri 08:12:05 PM 38.8167 -76.9000 25° Northeast 297 342 8,600  Level Potomac TRACON
Fri 08:13:00 PM 39.1167 -76.3166 90° East  Level FlightAware Approximate
Fri 08:13:06 PM 38.8833 -76.8333 38° Northeast 321 369 10,900  Level Potomac TRACON
Fri 08:14:00 PM 39.1518 -76.1988 83° East  Level FlightAware Approximate
Fri 08:14:12 PM 38.9000 -76.6833 82° East 368 423 12,700  Level Potomac TRACON
Fri 08:16:07 PM 38.9892 -76.4836 60° Northeast 367 422 16,300 1,875 Climbing Washington Center
Fri 08:17:08 PM 39.0589 -76.3747 50° Northeast 375 432 18,200 1,328 Climbing Washington Center
Fri 08:18:09 PM 39.1303 -76.2633 50° Northeast 388 447 19,000 1,140 Climbing Washington Center
Fri 08:19:09 PM 39.1789 -76.1111 68° East 400 460 20,500 1,500 Climbing Washington Center
Fri 08:20:09 PM 39.2503 -75.9908 53° Northeast 406 467 22,000 1,525 Climbing Washington Center
Fri 08:21:07 PM 39.3028 -75.8544 64° Northeast 412 474 23,500 1,412 Climbing Washington Center
Fri 08:22:08 PM 39.3697 -75.7203 57° Northeast 423 487 24,800 1,339 Climbing Washington Center
Fri 08:23:08 PM 39.4489 -75.6022 49° Northeast 429 494 26,200 1,289 Climbing Washington Center
Fri 08:24:09 PM 39.5364 -75.4839 46° Northeast 434 499 27,400 816 Climbing Washington Center
Fri 08:26:34 PM 39.7322 -75.1978 48° Northeast 452 520 29,000 466 Climbing New York Center
Fri 08:27:35 PM 39.8250 -75.0578 49° Northeast 465 535 29,000  Level New York Center
Fri 08:28:36 PM 39.9111 -74.9278 49° Northeast 470 541 29,000  Level New York Center
Fri 08:29:36 PM 39.9903 -74.8106 49° Northeast 470 541 29,000  Level New York Center
Fri 08:30:33 PM 40.1122 -74.7172 30° Northeast 465 535 29,000  Level New York Center
Fri 08:31:35 PM 40.2450 -74.6675 16° North 457 526 29,000  Level New York Center
Fri 08:33:40 PM 40.5022 -74.5797 15° North 477 549 29,000  Level Boston Center
Fri 08:34:40 PM 40.6322 -74.5375 14° North 477 549 29,000  Level Boston Center
Fri 08:35:40 PM 40.7603 -74.4925 15° North 477 549 29,000  Level Boston Center
Fri 08:36:40 PM 40.8903 -74.4472 15° North 472 543 29,000  Level Boston Center
Fri 08:37:40 PM 41.0181 -74.4069 13° North 472 543 29,000  Level Boston Center
Fri 08:38:40 PM 41.1669 -74.3619 13° North 478 550 29,000  Level Boston Center
Fri 08:39:40 PM 41.2781 -74.3183 16° North 478 550 29,000  Level Boston Center
Fri 08:40:40 PM 41.4122 -74.2725 14° North 473 544 29,000  Level Boston Center
Fri 08:41:40 PM 41.5569 -74.2239 14° North 473 544 29,000  Level Boston Center
Fri 08:42:40 PM 41.6867 -74.1803 14° North 473 544 29,000  Level Boston Center
Fri 08:43:40 PM 41.8144 -74.1392 13° North 466 536 29,000  Level Boston Center
Fri 08:44:40 PM 41.9444 -74.0925 15° North 466 536 29,000  Level Boston Center
Fri 08:45:40 PM 42.0744 -74.0456 15° North 472 543 29,000  Level Boston Center
Fri 08:46:40 PM 42.2042 -74.0011 14° North 472 543 29,000  Level Boston Center
Fri 08:47:40 PM 42.3361 -73.9539 15° North 472 543 29,000  Level Boston Center
Fri 08:48:40 PM 42.4681 -73.9064 15° North 477 549 29,000  Level Boston Center
Fri 08:49:40 PM 42.5958 -73.8644 14° North 472 543 29,000  Level Boston Center
Fri 08:50:40 PM 42.7236 -73.8108 17° North 472 543 29,000 -400 Level Boston Center
Fri 08:51:40 PM 42.8511 -73.7683 14° North 472 543 28,200 -1,200 Descending Boston Center
Fri 08:52:40 PM 42.9683 -73.7339 12° North 455 524 26,600 -1,650 Descending Boston Center
Fri 08:53:40 PM 43.0811 -73.7022 12° North 428 493 24,900 -1,300 Descending Boston Center
Fri 08:54:40 PM 43.1919 -73.6789 North 413 475 24,000 -450 Descending Boston Center
Fri 08:55:40 PM 43.3025 -73.6642 North 406 467 24,000  Level Boston Center
Fri 08:56:40 PM 43.4172 -73.6519 North 406 467 24,000  Level Boston Center
Fri 08:57:40 PM 43.5319 -73.6314 North 411 473 24,000 -250 Level Boston Center
Fri 08:58:40 PM 43.6447 -73.6108 North 411 473 23,500 -700 Descending Boston Center
Fri 08:59:40 PM 43.7558 -73.5639 17° North 405 466 22,600 -1,150 Descending Boston Center
Fri 09:00:40 PM 43.8583 -73.5025 23° Northeast 410 472 21,200 -2,300 Descending Boston Center
Fri 09:01:40 PM 43.9653 -73.4439 22° Northeast 410 472 18,000 -2,650 Descending Boston Center
Fri 09:02:40 PM 44.0575 -73.3878 24° Northeast 389 448 15,900 -2,250 Descending Boston Center
Fri 09:03:40 PM 44.1475 -73.3400 21° North 356 410 13,500 -2,550 Descending Boston Center
Fri 09:04:40 PM 44.2289 -73.2889 24° Northeast 333 383 10,800 -2,650 Descending Boston Center
Fri 09:05:40 PM 44.3086 -73.2467 21° North 318 366 8,200 -2,500 Descending Boston Center
Fri 09:06:40 PM 44.3858 -73.2128 17° North 304 350 5,800 -2,100 Descending Boston Center
Fri 09:07:40 PM 44.4439 -73.2658 327° Northwest 247 284 4,000 -1,800 Descending Boston Center

Login

Don't have an account? Register now (free) for customized features, flight alerts, and more!